Lonsdale, Arkansas
Current Conditions -  °F | °C
As of 8:53 AM on Saturday 20 Dec 2014 (Local Time) from KHOT Reporting Station
Broken Clouds Broken Clouds  
Wind Chill: 41°   Ceiling: 5000
Heat Index: 41°   Visibility: 9mi
Dew Point: 36°   Wind: 3mph
Humidity: 82%   Direction: 110°ESE
Pressure: 30.27"   Gusts: NA
Location:  34.54°N, 92.81°W
Report Text: KHOT 201453Z AUTO 11003KT 9SM BKN050 05/02 A3027 RMK AO2 SLP250 T00500022 51009
Loading
Personal Weather Stations






























Interactive Weather Map New forecast layout! Learn more

10-Day Weather Forecast

Advertisements
Track Severe Weather on mobile